Česky Dansk Deutsch English Español Suomi Français Magyar Italiano Nederlands norsk Polski Português svenska Türkçe

 

Het Weer

Boulmer (Groot Britanië)

00:50, 5 agosto 2016 (GMT)

NWNNE
WE
SWSSE
Home            
Boulmer Newcastle Spadeadam Tees-Side Carlisle Leeming Edinburgh Airport Leuchars Topcliffe Royal Air Force Base Disforth Dundee / Riverside Linton-On-Ouse Perth / Scone Leeds And Bradford Church Fenton Walney Island Glasgow Airport Leconfield Prestwick Airport Aberdeen / Dyce Blackpool Airport Humberside West Freugh

Om een weerknop op uw website of weblog te plaatsen, copieer onderstaande code en plak die in uw pagina. In het eerste vakje staat HTML-code, in het tweede vakje UBB-code.


Add to Google

Details

Visibilità totale:Maggiore di 10000 m, 10 km, 32800 ft, 6.2 miles
Clouds:Geschlossene Wolkendecke at 5000 ft, 1524 m
Temperature:14°C, 57°F
Temperatura di rugiada :11°C, 52°F
Pressione atmosferica:1013 hPa, 759.8 mmHg, 29.91 inHg, 1.000 atm
Umidità relativa:82.1 %
METAR:EGQM 050050Z AUTO 00000KT 9999 OVC050 14/11 Q1013

Snelkoppelingen

Actuele weersinformatie van de hele wereld. Voeg locaties toe met het plus (+) symbool. Deze snelkoppelingen kunnen worden toegevoegd aan Google.

Lid van de Technetium groep

website free tracking
StatCounter NetStat W3C Validator

14-04-2021 09:29:34
astro.technetium.be money.technetium.be phote.technetium.be tafeltennistafel.technetium.be www.ligfiets.net